createdAt,value
2023-03-17T00:01:31.879Z,969
2023-03-17T00:02:31.654Z,1007
2023-03-17T00:03:31.629Z,1007
2023-03-17T00:04:31.653Z,1007
2023-03-17T00:06:31.843Z,1007
2023-03-17T00:07:31.616Z,957
2023-03-17T00:08:31.619Z,957
2023-03-17T00:09:31.661Z,957
2023-03-17T00:11:31.828Z,957
2023-03-17T00:12:31.624Z,969
2023-03-17T00:13:31.684Z,969
2023-03-17T00:14:31.693Z,969
2023-03-17T00:16:31.879Z,969
2023-03-17T00:17:31.617Z,969
2023-03-17T00:18:31.668Z,969
2023-03-17T00:19:31.674Z,969
2023-03-17T00:21:31.816Z,969
2023-03-17T00:22:31.686Z,969
2023-03-17T00:23:31.695Z,969
2023-03-17T00:24:31.691Z,969
2023-03-17T00:26:31.842Z,969
2023-03-17T00:27:31.647Z,969
2023-03-17T00:28:31.639Z,969
2023-03-17T00:29:31.618Z,969
2023-03-17T00:31:31.905Z,969
2023-03-17T00:32:31.720Z,969
2023-03-17T00:33:31.691Z,969
2023-03-17T00:34:31.681Z,969
2023-03-17T00:36:31.816Z,969
2023-03-17T00:37:31.631Z,982
2023-03-17T00:38:31.647Z,982
2023-03-17T00:39:31.628Z,982
2023-03-17T00:41:31.839Z,982
2023-03-17T00:42:31.630Z,969
2023-03-17T00:43:31.644Z,969
2023-03-17T00:44:31.631Z,969
2023-03-17T00:46:31.818Z,969
2023-03-17T00:47:31.689Z,1069
2023-03-17T00:48:31.683Z,1069
2023-03-17T00:49:31.694Z,1069
2023-03-17T00:51:31.836Z,1069
2023-03-17T00:52:31.695Z,1017
2023-03-17T00:53:31.630Z,1017
2023-03-17T00:54:31.634Z,1017
2023-03-17T00:56:31.841Z,1017
2023-03-17T00:57:31.628Z,957
2023-03-17T00:58:31.679Z,957
2023-03-17T00:59:31.689Z,957
2023-03-17T01:01:31.834Z,957
2023-03-17T01:02:31.632Z,995
2023-03-17T01:03:31.649Z,995
2023-03-17T01:04:31.650Z,995
2023-03-17T01:05:31.631Z,995
2023-03-17T01:06:31.812Z,995
2023-03-17T01:07:31.633Z,1060
2023-03-17T01:08:31.635Z,1060
2023-03-17T01:09:31.651Z,1060
2023-03-17T01:10:31.992Z,1060
2023-03-17T01:11:31.838Z,1060
2023-03-17T01:12:31.665Z,1047
2023-03-17T01:13:31.640Z,1047
2023-03-17T01:14:31.696Z,1047
2023-03-17T01:15:31.696Z,1047
2023-03-17T01:16:31.861Z,1047
2023-03-17T01:17:31.660Z,1047
2023-03-17T01:18:31.714Z,1047
2023-03-17T01:19:31.697Z,1047
2023-03-17T01:21:31.851Z,1047
2023-03-17T01:22:31.638Z,1047
2023-03-17T01:23:31.697Z,1047
2023-03-17T01:24:31.633Z,1047
2023-03-17T01:25:31.637Z,1047
2023-03-17T01:26:31.831Z,1047
2023-03-17T01:27:31.703Z,1060
2023-03-17T01:28:31.721Z,1060
2023-03-17T01:29:31.698Z,1060
2023-03-17T01:31:31.896Z,1060
2023-03-17T01:32:31.718Z,969
2023-03-17T01:33:31.648Z,969
2023-03-17T01:34:31.647Z,969
2023-03-17T01:35:31.764Z,969
2023-03-17T01:36:31.830Z,969
2023-03-17T01:37:31.649Z,982
2023-03-17T01:38:31.662Z,982
2023-03-17T01:39:31.706Z,982
2023-03-17T01:41:31.841Z,982
2023-03-17T01:42:31.699Z,1047
2023-03-17T01:43:31.720Z,1047
2023-03-17T01:44:31.741Z,1047
2023-03-17T01:45:31.675Z,1047
2023-03-17T01:46:31.865Z,1047
2023-03-17T01:47:31.646Z,1047
2023-03-17T01:48:31.687Z,1047
2023-03-17T01:49:31.678Z,1047
2023-03-17T01:51:31.880Z,1047
2023-03-17T01:52:31.661Z,1047
2023-03-17T01:53:31.657Z,1047
2023-03-17T01:54:31.645Z,1047
2023-03-17T01:56:31.896Z,1047
2023-03-17T01:57:31.681Z,1035
2023-03-17T01:58:31.652Z,1038
2023-03-17T01:59:31.664Z,1035
2023-03-17T02:01:31.881Z,1035
2023-03-17T02:02:31.709Z,1047
2023-03-17T02:03:31.668Z,1048
2023-03-17T02:04:31.725Z,1047
2023-03-17T02:06:31.851Z,1062
2023-03-17T02:07:31.708Z,1069
2023-03-17T02:08:31.705Z,1085
2023-03-17T02:09:31.665Z,1069
2023-03-17T02:11:31.863Z,1071
2023-03-17T02:12:31.730Z,1035
2023-03-17T02:13:31.665Z,1035
2023-03-17T02:14:31.671Z,1035
2023-03-17T02:16:31.895Z,1035
2023-03-17T02:17:31.674Z,1060
2023-03-17T02:18:31.660Z,1062
2023-03-17T02:19:31.653Z,1060
2023-03-17T02:21:31.889Z,1060
2023-03-17T02:22:31.662Z,1047
2023-03-17T02:23:31.726Z,1047
2023-03-17T02:24:31.718Z,1047
2023-03-17T02:26:31.857Z,1047
2023-03-17T02:27:31.749Z,1132
2023-03-17T02:28:31.655Z,1132
2023-03-17T02:29:31.654Z,1132
2023-03-17T02:31:31.849Z,1132
2023-03-17T02:32:31.685Z,1047
2023-03-17T02:33:31.677Z,1047
2023-03-17T02:34:31.666Z,1047
2023-03-17T02:36:31.903Z,1047
2023-03-17T02:37:31.714Z,1062
2023-03-17T02:38:31.748Z,1060
2023-03-17T02:39:31.661Z,1060
2023-03-17T02:41:31.837Z,1060
2023-03-17T02:42:31.692Z,1035
2023-03-17T02:43:31.672Z,1035
2023-03-17T02:44:31.698Z,1256
2023-03-17T02:46:31.926Z,1035
2023-03-17T02:47:31.684Z,1047
2023-03-17T02:48:31.675Z,1047
2023-03-17T02:49:31.727Z,1047
2023-03-17T02:51:31.887Z,1047
2023-03-17T02:52:31.681Z,1060
2023-03-17T02:53:31.695Z,1265
2023-03-17T02:54:31.682Z,1060
2023-03-17T02:56:31.868Z,1060
2023-03-17T02:57:31.748Z,1060
2023-03-17T02:58:31.739Z,1060
2023-03-17T02:59:31.681Z,1263
2023-03-17T03:01:31.890Z,1060
2023-03-17T03:02:31.736Z,1047
2023-03-17T03:03:31.681Z,1047
2023-03-17T03:04:31.725Z,1047
2023-03-17T03:06:31.935Z,1047
2023-03-17T03:07:31.690Z,1047
2023-03-17T03:08:31.722Z,1047
2023-03-17T03:09:31.733Z,1047
2023-03-17T03:11:31.852Z,1047
2023-03-17T03:12:31.676Z,1060
2023-03-17T03:13:31.686Z,1060
2023-03-17T03:14:31.684Z,1060
2023-03-17T03:16:31.861Z,1060
2023-03-17T03:17:31.693Z,1060
2023-03-17T03:18:31.677Z,1060
2023-03-17T03:19:31.769Z,1060
2023-03-17T03:21:31.884Z,1060
2023-03-17T03:22:31.683Z,1062
2023-03-17T03:23:31.716Z,1060
2023-03-17T03:24:31.738Z,1060
2023-03-17T03:26:31.886Z,1060
2023-03-17T03:27:31.760Z,1060
2023-03-17T03:28:31.746Z,1060
2023-03-17T03:29:31.716Z,1060
2023-03-17T03:31:31.960Z,1060
2023-03-17T03:32:31.766Z,1132
2023-03-17T03:33:31.748Z,1132
2023-03-17T03:34:31.691Z,1132
2023-03-17T03:36:31.885Z,1132
2023-03-17T03:37:31.687Z,1162
2023-03-17T03:38:31.691Z,1162
2023-03-17T03:39:31.686Z,1162
2023-03-17T03:41:31.896Z,1162
2023-03-17T03:42:31.688Z,1147
2023-03-17T03:43:31.805Z,1147
2023-03-17T03:44:31.687Z,1147
2023-03-17T03:46:31.926Z,1147
2023-03-17T03:47:31.744Z,1176
2023-03-17T03:48:31.694Z,1148
2023-03-17T03:49:31.680Z,1147
2023-03-17T03:51:31.877Z,1147
2023-03-17T03:52:31.744Z,1162
2023-03-17T03:53:31.782Z,1162
2023-03-17T03:54:31.684Z,1170
2023-03-17T03:56:31.938Z,1210
2023-03-17T03:57:31.743Z,1129
2023-03-17T03:58:31.764Z,1087
2023-03-17T03:59:31.705Z,1087
2023-03-17T04:01:31.889Z,1132
2023-03-17T04:02:31.698Z,1087
2023-03-17T04:03:31.689Z,1087
2023-03-17T04:04:31.759Z,1087
2023-03-17T04:06:31.892Z,1128
2023-03-17T04:07:31.766Z,1075
2023-03-17T04:08:31.703Z,1075
2023-03-17T04:09:31.783Z,1075
2023-03-17T04:11:31.894Z,1075
2023-03-17T04:12:31.746Z,1162
2023-03-17T04:13:31.717Z,1198
2023-03-17T04:14:31.696Z,1162
2023-03-17T04:16:31.900Z,1162
2023-03-17T04:17:31.736Z,1176
2023-03-17T04:18:31.725Z,1176
2023-03-17T04:19:31.727Z,1176
2023-03-17T04:21:31.893Z,1176
2023-03-17T04:22:31.783Z,1155
2023-03-17T04:23:31.714Z,1132
2023-03-17T04:24:31.772Z,1132
2023-03-17T04:26:31.873Z,1132
2023-03-17T04:27:31.740Z,1162
2023-03-17T04:28:31.750Z,1162
2023-03-17T04:29:31.698Z,1162
2023-03-17T04:31:31.873Z,1162
2023-03-17T04:32:31.779Z,1162
2023-03-17T04:33:31.811Z,1162
2023-03-17T04:34:31.686Z,1162
2023-03-17T04:36:31.902Z,1162
2023-03-17T04:37:34.516Z,1147
2023-03-17T04:38:31.690Z,1147
2023-03-17T04:39:31.696Z,1147
2023-03-17T04:41:31.912Z,1147
2023-03-17T04:42:31.689Z,1060
2023-03-17T04:43:31.755Z,1060
2023-03-17T04:44:31.696Z,1060
2023-03-17T04:46:31.909Z,1060
2023-03-17T04:47:31.735Z,1162
2023-03-17T04:48:31.756Z,1162
2023-03-17T04:49:31.699Z,1348
2023-03-17T04:51:31.882Z,1162
2023-03-17T04:52:31.696Z,1162
2023-03-17T04:53:31.786Z,1162
2023-03-17T04:54:31.763Z,1162
2023-03-17T04:56:32.165Z,1162
2023-03-17T04:57:31.724Z,1075
2023-03-17T04:58:31.707Z,1075
2023-03-17T04:59:31.713Z,1075
2023-03-17T05:01:31.877Z,1077
2023-03-17T05:02:31.798Z,1060
2023-03-17T05:03:31.708Z,1071
2023-03-17T05:04:32.424Z,1069
2023-03-17T05:06:31.885Z,1060
2023-03-17T05:07:33.952Z,1075
2023-03-17T05:08:31.762Z,1075
2023-03-17T05:09:31.715Z,1075
2023-03-17T05:11:31.913Z,1075
2023-03-17T05:12:31.759Z,1095
2023-03-17T05:13:31.706Z,1087
2023-03-17T05:14:31.717Z,1087
2023-03-17T05:16:31.952Z,1087
2023-03-17T05:17:31.721Z,1075
2023-03-17T05:18:31.714Z,1089
2023-03-17T05:19:31.761Z,1077
2023-03-17T05:21:31.914Z,1075
2023-03-17T05:22:31.781Z,1077
2023-03-17T05:23:31.718Z,1075
2023-03-17T05:24:31.716Z,1085
2023-03-17T05:26:31.889Z,1085
2023-03-17T05:27:31.761Z,1083
2023-03-17T05:28:31.710Z,1060
2023-03-17T05:29:31.706Z,1060
2023-03-17T05:31:31.912Z,1060
2023-03-17T05:32:31.890Z,1075
2023-03-17T05:33:31.713Z,1273
2023-03-17T05:34:31.768Z,1075
2023-03-17T05:36:31.951Z,1091
2023-03-17T05:37:31.711Z,995
2023-03-17T05:38:31.736Z,1016
2023-03-17T05:39:31.710Z,1012
2023-03-17T05:41:31.928Z,995
2023-03-17T05:42:31.803Z,1007
2023-03-17T05:43:31.721Z,1007
2023-03-17T05:44:31.712Z,1029
2023-03-17T05:46:32.012Z,1043
2023-03-17T05:47:31.717Z,1007
2023-03-17T05:48:31.762Z,1007
2023-03-17T05:49:31.736Z,1008
2023-03-17T05:51:31.944Z,1057
2023-03-17T05:52:31.726Z,1047
2023-03-17T05:53:31.729Z,1069
2023-03-17T05:54:31.746Z,1047
2023-03-17T05:56:31.927Z,1062
2023-03-17T05:57:31.779Z,1047
2023-03-17T05:58:31.812Z,995
2023-03-17T05:59:31.719Z,1053
2023-03-17T06:01:31.915Z,1069
2023-03-17T06:02:31.790Z,991
2023-03-17T06:03:31.833Z,925
2023-03-17T06:04:31.725Z,970
2023-03-17T06:06:31.938Z,993
2023-03-17T06:07:41.092Z,913
2023-03-17T06:08:31.789Z,913
2023-03-17T06:09:31.818Z,957
2023-03-17T06:11:31.931Z,913
2023-03-17T06:12:31.742Z,983
2023-03-17T06:13:31.794Z,977
2023-03-17T06:14:31.778Z,925
2023-03-17T06:16:31.907Z,925
2023-03-17T06:17:31.734Z,951
2023-03-17T06:18:31.749Z,913
2023-03-17T06:19:31.727Z,913
2023-03-17T06:21:31.935Z,930
2023-03-17T06:22:31.726Z,928
2023-03-17T06:23:31.731Z,1101
2023-03-17T06:24:31.797Z,901
2023-03-17T06:26:31.932Z,901
2023-03-17T06:27:31.728Z,829
2023-03-17T06:28:31.738Z,829
2023-03-17T06:29:31.813Z,829
2023-03-17T06:31:31.959Z,870
2023-03-17T06:32:31.845Z,838
2023-03-17T06:33:31.800Z,883
2023-03-17T06:34:31.823Z,838
2023-03-17T06:36:31.919Z,838
2023-03-17T06:37:31.790Z,876
2023-03-17T06:38:31.788Z,870
2023-03-17T06:39:31.793Z,829
2023-03-17T06:41:31.931Z,890
2023-03-17T06:42:31.796Z,819
2023-03-17T06:43:31.826Z,892
2023-03-17T06:44:31.754Z,899
2023-03-17T06:46:31.975Z,883
2023-03-17T06:47:31.745Z,799
2023-03-17T06:48:31.794Z,729
2023-03-17T06:49:31.827Z,794
2023-03-17T06:51:31.987Z,828
2023-03-17T06:52:31.800Z,849
2023-03-17T06:53:31.834Z,878
2023-03-17T06:54:31.788Z,1083
2023-03-17T06:56:31.951Z,729
2023-03-17T06:57:31.805Z,821
2023-03-17T06:58:31.754Z,721
2023-03-17T06:59:31.761Z,768
2023-03-17T07:01:31.960Z,737
2023-03-17T07:02:32.326Z,712
2023-03-17T07:03:37.460Z,872
2023-03-17T07:04:31.795Z,709
2023-03-17T07:06:31.953Z,737
2023-03-17T07:07:31.811Z,801
2023-03-17T07:08:31.817Z,872
2023-03-17T07:09:31.843Z,712
2023-03-17T07:33:36.238Z,686
2023-03-17T07:34:36.151Z,683
2023-03-17T07:36:42.375Z,682
2023-03-17T07:37:37.318Z,796
2023-03-17T07:38:37.287Z,646
2023-03-17T07:39:36.119Z,656
2023-03-17T07:41:36.294Z,694
2023-03-17T07:42:36.074Z,864
2023-03-17T07:43:36.086Z,871
2023-03-17T07:44:36.135Z,814
2023-03-17T07:46:36.240Z,901
2023-03-17T07:47:36.066Z,853
2023-03-17T07:48:36.125Z,847
2023-03-17T07:49:41.510Z,839
2023-03-17T07:51:36.240Z,1012
2023-03-17T07:52:36.082Z,656
2023-03-17T07:53:36.159Z,710
2023-03-17T07:54:36.196Z,705
2023-03-17T07:56:36.255Z,745
2023-03-17T07:57:36.134Z,694
2023-03-17T07:58:36.064Z,682
2023-03-17T07:59:36.194Z,672
2023-03-17T08:01:36.383Z,836
2023-03-17T08:02:36.201Z,817
2023-03-17T08:03:36.210Z,803
2023-03-17T08:04:36.168Z,675
2023-03-17T08:06:36.307Z,844
2023-03-17T08:07:36.135Z,853
2023-03-17T08:08:36.135Z,631
2023-03-17T08:09:36.124Z,689
2023-03-17T08:11:36.258Z,878
2023-03-17T08:12:36.130Z,643
2023-03-17T08:13:36.168Z,647
2023-03-17T08:14:36.128Z,793
2023-03-17T08:16:36.348Z,771
2023-03-17T08:17:36.120Z,784
2023-03-17T08:18:36.089Z,606
2023-03-17T08:19:36.186Z,765
2023-03-17T08:21:36.307Z,638
2023-03-17T08:22:36.201Z,905
2023-03-17T08:23:36.101Z,863
2023-03-17T08:24:36.119Z,703
2023-03-17T08:26:36.381Z,698
2023-03-17T08:27:36.183Z,825
2023-03-17T08:28:36.130Z,676
2023-03-17T08:29:36.180Z,831
2023-03-17T08:31:36.343Z,1029
2023-03-17T08:32:36.160Z,809
2023-03-17T08:33:36.087Z,667
2023-03-17T08:34:36.159Z,633
2023-03-17T08:36:36.325Z,604
2023-03-17T08:37:36.232Z,650
2023-03-17T08:38:36.159Z,771
2023-03-17T08:39:36.147Z,634
2023-03-17T08:41:36.307Z,782
2023-03-17T08:42:36.090Z,842
2023-03-17T08:43:36.198Z,838
2023-03-17T08:44:36.155Z,825
2023-03-17T08:46:36.307Z,659
2023-03-17T08:47:36.109Z,781
2023-03-17T08:48:36.098Z,794
2023-03-17T08:49:36.116Z,804
2023-03-17T08:51:38.800Z,614
2023-03-17T08:52:39.720Z,689
2023-03-17T08:54:34.609Z,584
2023-03-17T08:55:33.504Z,794
2023-03-17T08:58:34.879Z,810
2023-03-17T08:59:35.881Z,839
2023-03-17T08:59:54.093Z,831
2023-03-17T09:00:54.047Z,641
2023-03-17T09:01:52.972Z,791
2023-03-17T09:02:52.759Z,791
2023-03-17T09:03:52.821Z,646
2023-03-17T09:05:16.195Z,703
2023-03-17T09:06:16.035Z,820
2023-03-17T09:07:16.093Z,686
2023-03-17T09:08:16.090Z,829
2023-03-17T09:10:16.214Z,878
2023-03-17T09:11:16.181Z,659
2023-03-17T09:12:16.038Z,895
2023-03-17T09:13:16.081Z,892
2023-03-17T09:15:16.232Z,939
2023-03-17T09:16:16.172Z,757
2023-03-17T09:17:19.847Z,925
2023-03-17T09:18:16.030Z,1140
2023-03-17T09:20:16.232Z,811
2023-03-17T09:21:16.030Z,934
2023-03-17T09:22:16.040Z,744
2023-03-17T09:23:16.042Z,771
2023-03-17T09:25:16.273Z,969
2023-03-17T09:26:16.045Z,828
2023-03-17T09:27:16.040Z,1029
2023-03-17T09:28:16.065Z,1124
2023-03-17T09:30:16.316Z,882
2023-03-17T09:31:16.067Z,1001
2023-03-17T09:32:16.051Z,835
2023-03-17T09:34:56.252Z,1126
2023-03-17T09:35:56.287Z,882
2023-03-17T09:36:56.256Z,1159
2023-03-17T09:38:56.420Z,1170
2023-03-17T09:39:56.291Z,942
2023-03-17T09:40:56.240Z,905
2023-03-17T09:41:56.254Z,1133
2023-03-17T09:43:56.420Z,1232
2023-03-17T09:44:56.238Z,1232
2023-03-17T09:45:56.236Z,983
2023-03-17T09:46:56.304Z,970
2023-03-17T09:48:56.408Z,1247
2023-03-17T09:49:56.241Z,887
2023-03-17T09:50:56.305Z,949
2023-03-17T09:51:56.301Z,960
2023-03-17T09:53:56.538Z,1163
2023-03-17T09:54:56.317Z,1103
2023-03-17T09:55:56.303Z,1140
2023-03-17T09:56:56.324Z,887
2023-03-17T09:58:56.462Z,1163
2023-03-17T09:59:56.319Z,1281
2023-03-17T10:00:56.302Z,1027
2023-03-17T10:01:56.383Z,961
2023-03-17T10:03:56.445Z,1235
2023-03-17T10:04:56.289Z,1281
2023-03-17T10:05:56.248Z,1229
2023-03-17T10:06:56.255Z,995
2023-03-17T10:08:56.460Z,1148
2023-03-17T10:09:56.308Z,1196
2023-03-17T10:10:56.316Z,1172
2023-03-17T10:11:56.312Z,1198
2023-03-17T10:13:56.466Z,977
2023-03-17T10:14:56.321Z,1521
2023-03-17T10:15:56.322Z,1217
2023-03-17T10:16:56.313Z,1189
2023-03-17T10:18:56.478Z,1174
2023-03-17T10:19:56.280Z,1302
2023-03-17T10:20:56.254Z,1038
2023-03-17T10:21:56.259Z,1083
2023-03-17T10:23:56.442Z,1409
2023-03-17T10:24:56.307Z,1282
2023-03-17T10:25:56.270Z,1012
2023-03-17T10:26:56.264Z,1027
2023-03-17T10:28:56.433Z,1444
2023-03-17T10:29:56.250Z,1355
2023-03-17T10:30:56.268Z,1399
2023-03-17T10:31:58.258Z,940
2023-03-17T10:33:56.441Z,1333
2023-03-17T10:34:56.259Z,1174
2023-03-17T10:35:56.334Z,1335
2023-03-17T10:36:56.337Z,1328
2023-03-17T10:38:56.522Z,1268
2023-03-17T10:39:56.406Z,1004
2023-03-17T10:40:56.365Z,1059
2023-03-17T10:41:56.326Z,1292
2023-03-17T10:43:56.487Z,1360
2023-03-17T10:44:56.323Z,1048
2023-03-17T10:45:56.321Z,1012
2023-03-17T10:46:56.514Z,1251
2023-03-17T10:48:56.584Z,1348
2023-03-17T10:49:56.345Z,995
2023-03-17T10:50:56.351Z,1297
2023-03-17T10:51:56.367Z,1203
2023-03-17T10:53:56.492Z,1343
2023-03-17T10:54:56.362Z,1212
2023-03-17T10:55:56.334Z,909
2023-03-17T10:56:58.321Z,874
2023-03-17T10:58:56.482Z,1095
2023-03-17T10:59:56.349Z,1282
2023-03-17T11:00:56.364Z,1315
2023-03-17T11:01:56.339Z,1358
2023-03-17T11:02:56.347Z,957
2023-03-17T11:15:54.410Z,2492
2023-03-17T11:16:53.754Z,2342
2023-03-17T11:17:53.755Z,2270
2023-03-17T11:19:54.245Z,2005
2023-03-17T11:20:54.016Z,1462
2023-03-17T11:21:54.044Z,1521
2023-03-17T11:22:54.012Z,1321
2023-03-17T11:24:54.209Z,1557
2023-03-17T11:25:54.014Z,1109
2023-03-17T11:26:54.031Z,1148
2023-03-17T11:28:05.692Z,1148
2023-03-17T11:31:40.647Z,1487
2023-03-17T11:36:05.915Z,1210
2023-03-17T11:38:06.149Z,1203
2023-03-17T11:39:05.935Z,1099
2023-03-17T11:40:05.953Z,1153
2023-03-17T11:41:05.946Z,1176
2023-03-17T11:43:06.076Z,1162
2023-03-17T11:44:05.932Z,1071
2023-03-17T11:45:05.922Z,1067
2023-03-17T11:46:06.037Z,1321
2023-03-17T11:48:07.257Z,1245
2023-03-17T11:49:08.426Z,1451
2023-03-17T11:53:08.071Z,1129
2023-03-17T11:55:59.931Z,951
2023-03-17T11:57:00.023Z,1053
2023-03-17T11:57:59.859Z,1045
2023-03-17T12:00:00.128Z,1343
2023-03-17T12:00:59.929Z,1530
2023-03-17T12:01:59.934Z,1538
2023-03-17T12:02:59.950Z,1548
2023-03-17T12:05:00.170Z,2040
2023-03-17T12:05:59.964Z,996
2023-03-17T12:06:59.943Z,874
2023-03-17T12:07:59.939Z,902
2023-03-17T12:10:00.213Z,1001
2023-03-17T12:10:59.967Z,1248
2023-03-17T12:11:59.961Z,1497
2023-03-17T12:12:59.938Z,1693
2023-03-17T12:15:00.110Z,1071
2023-03-17T12:16:00.009Z,1150
2023-03-17T12:16:59.941Z,1205
2023-03-17T12:17:59.853Z,1256
2023-03-17T12:21:46.586Z,1133
2023-03-17T12:22:46.399Z,1497
2023-03-17T12:23:46.405Z,1500
2023-03-17T12:24:46.409Z,1557
2023-03-17T12:26:46.555Z,1189
2023-03-17T12:27:46.411Z,1518
2023-03-17T12:28:46.459Z,1538
2023-03-17T12:29:46.450Z,1459
2023-03-17T12:31:46.624Z,1331
2023-03-17T12:32:46.473Z,1287
2023-03-17T12:33:46.509Z,1287
2023-03-17T12:34:46.454Z,1568
2023-03-17T12:36:46.664Z,1740
2023-03-17T12:37:46.457Z,1497
2023-03-17T12:38:46.453Z,1135
2023-03-17T12:39:46.395Z,1150
2023-03-17T12:41:46.579Z,1214
2023-03-17T12:42:46.410Z,1160
2023-03-17T12:43:46.435Z,1110
2023-03-17T12:44:47.018Z,877
2023-03-17T12:46:47.578Z,1105
2023-03-17T12:47:48.265Z,1101
2023-03-17T12:48:48.015Z,1153
2023-03-17T12:49:48.025Z,1050
2023-03-17T12:50:48.052Z,1275
2023-03-17T12:52:48.210Z,1253
2023-03-17T12:53:48.066Z,1124
2023-03-17T12:54:48.111Z,1124
2023-03-17T12:55:48.086Z,848
2023-03-17T12:57:48.248Z,1290
2023-03-17T12:58:48.097Z,1068
2023-03-17T12:59:48.078Z,1038
2023-03-17T13:00:48.086Z,808
2023-03-17T13:02:48.255Z,1195
2023-03-17T13:03:48.092Z,1138
2023-03-17T13:04:48.087Z,887
2023-03-17T13:05:48.106Z,880
2023-03-17T13:07:48.288Z,1099
2023-03-17T13:08:48.025Z,967
2023-03-17T13:09:48.036Z,1222
2023-03-17T13:10:48.049Z,1244
2023-03-17T13:12:48.257Z,1293
2023-03-17T13:13:48.119Z,1248
2023-03-17T13:14:48.090Z,1275
2023-03-17T13:15:49.304Z,1313
2023-03-17T13:17:19.461Z,1205
2023-03-17T13:19:13.813Z,1311
2023-03-17T13:20:13.909Z,1119
2023-03-17T13:21:13.877Z,1061
2023-03-17T13:23:13.971Z,1057
2023-03-17T13:24:13.799Z,1277
2023-03-17T13:25:13.847Z,1121
2023-03-17T13:26:13.865Z,966
2023-03-17T13:38:01.533Z,957
2023-03-17T13:39:18.107Z,843
2023-03-17T13:45:06.545Z,1088
2023-03-17T13:46:23.002Z,891
2023-03-17T13:47:22.824Z,906
2023-03-17T13:48:22.885Z,899
2023-03-17T13:50:23.059Z,1085
2023-03-17T13:51:22.806Z,1204
2023-03-17T13:52:22.950Z,916
2023-03-17T13:53:23.004Z,926
2023-03-17T13:57:58.425Z,844
2023-03-17T14:00:58.536Z,925
2023-03-17T14:01:58.489Z,1182
2023-03-17T14:02:58.390Z,1227
2023-03-17T14:04:58.639Z,996
2023-03-17T14:05:58.433Z,945
2023-03-17T14:07:03.452Z,926
2023-03-17T14:08:58.982Z,801
2023-03-17T14:09:58.880Z,1176
2023-03-17T14:10:58.955Z,1220
2023-03-17T14:11:58.844Z,1270
2023-03-17T14:13:58.989Z,1263
2023-03-17T14:14:58.865Z,852
2023-03-17T14:15:58.872Z,876
2023-03-17T14:16:58.862Z,886
2023-03-17T14:18:59.000Z,1182
2023-03-17T14:19:58.836Z,1275
2023-03-17T14:20:58.820Z,1240
2023-03-17T14:21:58.807Z,1222
2023-03-17T14:22:58.834Z,1304
2023-03-17T14:24:07.058Z,1074
2023-03-17T14:26:59.466Z,1199
2023-03-17T14:28:01.989Z,1195
2023-03-17T14:28:59.440Z,1204
2023-03-17T14:29:59.240Z,1250
2023-03-17T14:30:59.410Z,1214
2023-03-17T14:33:08.585Z,1193
2023-03-17T14:35:09.053Z,1216
2023-03-17T14:36:08.874Z,915
2023-03-17T14:37:08.901Z,909
2023-03-17T14:38:08.847Z,896
2023-03-17T14:44:38.047Z,1242
2023-03-17T14:45:37.878Z,1295
2023-03-17T14:46:37.960Z,1259
2023-03-17T14:47:37.865Z,1231
2023-03-17T14:48:43.349Z,1224
2023-03-17T14:49:49.798Z,967
2023-03-17T14:50:48.440Z,1186
2023-03-17T14:57:52.143Z,1125
2023-03-17T14:58:52.661Z,1207
2023-03-17T15:00:51.680Z,1634
2023-03-17T15:02:00.350Z,1313
2023-03-17T15:03:51.965Z,887
2023-03-17T15:04:55.852Z,955
2023-03-17T15:10:52.706Z,1242
2023-03-17T15:11:52.589Z,946
2023-03-17T15:12:52.565Z,916
2023-03-17T15:13:52.836Z,977
2023-03-17T15:14:53.275Z,1242
2023-03-17T15:16:57.093Z,1019
2023-03-17T15:18:01.622Z,1250
2023-03-17T15:19:32.804Z,1148
2023-03-17T15:20:28.817Z,1229
2023-03-17T15:21:29.953Z,1216
2023-03-17T15:24:23.307Z,1009
2023-03-17T15:25:23.301Z,1392
2023-03-17T15:26:23.373Z,1392
2023-03-17T15:27:25.576Z,1389
2023-03-17T15:28:24.477Z,1352
2023-03-17T15:33:23.865Z,970
2023-03-17T15:36:11.367Z,942
2023-03-17T15:37:09.916Z,1013
2023-03-17T15:38:09.906Z,1302
2023-03-17T15:39:09.917Z,1275
2023-03-17T15:41:10.098Z,1320
2023-03-17T15:42:09.912Z,1270
2023-03-17T15:43:09.922Z,1280
2023-03-17T15:44:09.938Z,977
2023-03-17T15:46:10.105Z,1039
2023-03-17T15:47:09.981Z,950
2023-03-17T15:48:09.994Z,1198
2023-03-17T15:49:10.006Z,1067
2023-03-17T15:51:10.178Z,1259
2023-03-17T15:52:09.978Z,1222
2023-03-17T15:53:09.978Z,970
2023-03-17T15:54:09.986Z,1617
2023-03-17T15:56:10.118Z,961
2023-03-17T15:57:09.924Z,1165
2023-03-17T15:58:09.914Z,1141
2023-03-17T15:59:09.977Z,1138
2023-03-17T16:01:10.180Z,1111
2023-03-17T16:02:09.946Z,1188
2023-03-17T16:03:09.958Z,1240
2023-03-17T16:04:09.981Z,947
2023-03-17T16:06:10.104Z,1188
2023-03-17T16:07:09.980Z,906
2023-03-17T16:08:09.946Z,894
2023-03-17T16:09:09.994Z,1132
2023-03-17T16:11:10.116Z,1111
2023-03-17T16:12:09.940Z,1159
2023-03-17T16:13:57.761Z,1179
2023-03-17T16:14:58.157Z,960
2023-03-17T16:15:56.225Z,996
2023-03-17T16:16:56.219Z,1060
2023-03-17T16:18:56.429Z,1121
2023-03-17T16:19:56.152Z,1142
2023-03-17T16:20:56.147Z,894
2023-03-17T16:21:56.156Z,1142
2023-03-17T16:23:56.402Z,1094
2023-03-17T16:24:56.162Z,1105
2023-03-17T16:26:01.904Z,889
2023-03-17T16:26:56.321Z,1135
2023-03-17T16:29:06.207Z,940
2023-03-17T16:30:04.528Z,1170
2023-03-17T16:31:04.571Z,838
2023-03-17T16:33:06.433Z,886
2023-03-17T16:35:07.256Z,972
2023-03-17T16:36:04.988Z,1150
2023-03-17T16:37:04.987Z,1119
2023-03-17T16:38:04.852Z,1084
2023-03-17T16:40:05.130Z,867
2023-03-17T16:41:04.948Z,998
2023-03-17T16:42:04.992Z,1333
2023-03-17T16:43:08.370Z,1056
2023-03-17T16:45:05.139Z,1002
2023-03-17T16:46:04.856Z,887
2023-03-17T16:47:05.008Z,967
2023-03-17T16:48:04.957Z,812
2023-03-17T16:50:05.127Z,926
2023-03-17T16:51:04.855Z,988
2023-03-17T16:52:04.837Z,983
2023-03-17T16:53:04.862Z,955
2023-03-17T16:55:05.163Z,745
2023-03-17T16:56:04.955Z,809
2023-03-17T16:57:07.278Z,710
2023-03-17T16:58:04.851Z,914
2023-03-17T16:59:04.852Z,905
2023-03-17T17:00:45.261Z,998
2023-03-17T17:01:46.167Z,915
2023-03-17T17:02:45.037Z,871
2023-03-17T17:03:45.039Z,657
2023-03-17T17:05:45.293Z,805
2023-03-17T17:06:45.026Z,815
2023-03-17T17:07:45.036Z,656
2023-03-17T17:08:45.045Z,975
2023-03-17T17:10:45.203Z,770
2023-03-17T17:11:45.032Z,639
2023-03-17T17:12:45.083Z,603
2023-03-17T17:13:45.025Z,740
2023-03-17T17:15:45.287Z,582
2023-03-17T17:16:45.021Z,730
2023-03-17T17:17:45.018Z,710
2023-03-17T17:18:45.020Z,556
2023-03-17T17:20:45.227Z,651
2023-03-17T17:21:45.029Z,502
2023-03-17T17:22:45.054Z,637
2023-03-17T17:23:45.035Z,500
2023-03-17T17:25:45.220Z,482
2023-03-17T17:26:45.029Z,456
2023-03-17T17:27:45.086Z,532
2023-03-17T17:28:45.029Z,456
2023-03-17T17:30:45.466Z,493
2023-03-17T17:31:45.144Z,476
2023-03-17T17:32:45.120Z,483
2023-03-17T17:33:45.030Z,476
2023-03-17T17:35:50.260Z,476
2023-03-17T17:36:45.047Z,566
2023-03-17T17:37:45.100Z,498
2023-03-17T17:38:45.093Z,498
2023-03-17T17:40:45.237Z,498
2023-03-17T17:41:45.140Z,506
2023-03-17T17:42:45.057Z,506
2023-03-17T17:43:45.147Z,506
2023-03-17T17:45:45.238Z,506
2023-03-17T17:46:45.088Z,492
2023-03-17T17:47:45.058Z,492
2023-03-17T17:48:45.072Z,492
2023-03-17T17:50:45.291Z,492
2023-03-17T17:51:45.077Z,486
2023-03-17T17:52:46.608Z,486
2023-03-17T17:53:45.045Z,486
2023-03-17T17:55:45.220Z,486
2023-03-17T17:56:45.176Z,532
2023-03-17T17:57:45.046Z,532
2023-03-17T17:58:45.055Z,532
2023-03-17T18:00:45.304Z,532
2023-03-17T18:01:45.046Z,501
2023-03-17T18:02:45.068Z,501
2023-03-17T18:03:45.074Z,501
2023-03-17T18:05:45.225Z,501
2023-03-17T18:06:45.068Z,561
2023-03-17T18:07:45.111Z,561
2023-03-17T18:08:45.040Z,561
2023-03-17T18:10:45.217Z,561
2023-03-17T18:11:45.156Z,518
2023-03-17T18:12:45.038Z,518